Time;durP1;ratioP1;P1;durP2;ratioP2;P2;SDS_P1;SDS_P2;PMS_P1;PMS_P2;Temp;Humidity;BMP_temperature;BMP_pressure;BME280_temperature;BME280_humidity;BME280_pressure;Samples;Min_cycle;Max_cycle;Signal;HPM_P1;HPM_P2
2023/04/12 00:01:36;;;;;;;4.47;1.33;;;;;;;;;;5022256;28;20201;-63
2023/04/12 00:04:04;;;;;;;2.47;1.47;;;;;;;;;;5027358;28;20295;-64
2023/04/12 00:06:32;;;;;;;2.47;1.20;;;;;;;;;;5030362;28;20215;-63
2023/04/12 00:09:01;;;;;;;4.40;1.50;;;;;;;;;;5024497;28;20201;-63
2023/04/12 00:11:28;;;;;;;3.00;1.23;;;;;;;;;;5031010;28;20268;-63
2023/04/12 00:13:56;;;;;;;3.17;1.47;;;;;;;;;;5026764;28;20205;-63
2023/04/12 00:16:23;;;;;;;2.83;1.50;;;;;;;;;;5026472;28;20200;-63
2023/04/12 00:18:50;;;;;;;3.67;1.30;;;;;;;;;;5027671;28;20242;-63
2023/04/12 00:21:18;;;;;;;4.40;1.60;;;;;;;;;;5027080;28;20199;-64
2023/04/12 00:23:46;;;;;;;2.37;1.37;;;;;;;;;;5028167;28;20211;-64
2023/04/12 00:26:14;;;;;;;3.57;1.67;;;;;;;;;;5024423;28;20200;-63
2023/04/12 00:28:42;;;;;;;4.03;1.30;;;;;;;;;;5027224;28;20240;-64
2023/04/12 00:31:10;;;;;;;4.37;1.70;;;;;;;;;;5028637;28;20208;-63
2023/04/12 00:33:37;;;;;;;4.40;1.73;;;;;;;;;;5028194;28;20234;-63
2023/04/12 00:36:04;;;;;;;2.77;1.20;;;;;;;;;;5022453;28;20204;-63
2023/04/12 00:38:31;;;;;;;2.37;1.93;;;;;;;;;;5027656;28;20227;-63
2023/04/12 00:40:59;;;;;;;2.90;1.40;;;;;;;;;;5026137;28;20207;-63
2023/04/12 00:43:28;;;;;;;5.23;1.60;;;;;;;;;;5024075;28;20278;-63
2023/04/12 00:45:56;;;;;;;3.23;1.17;;;;;;;;;;5016763;28;20244;-63
2023/04/12 00:48:23;;;;;;;3.70;1.40;;;;;;;;;;5026797;28;20200;-63
2023/04/12 00:50:54;;;;;;;2.73;1.53;;;;;;;;;;5030042;28;20200;-63
2023/04/12 00:53:21;;;;;;;1.67;1.30;;;;;;;;;;5031553;28;20207;-63
2023/04/12 00:55:49;;;;;;;2.83;1.40;;;;;;;;;;5029303;28;20239;-63
2023/04/12 00:58:17;;;;;;;4.07;1.60;;;;;;;;;;5026252;28;20271;-63
2023/04/12 01:00:49;;;;;;;3.20;1.50;;;;;;;;;;5025660;28;20215;-63
2023/04/12 01:03:21;;;;;;;3.07;1.60;;;;;;;;;;5027908;28;20203;-63
2023/04/12 01:05:53;;;;;;;2.77;1.30;;;;;;;;;;5024416;28;20204;-63
2023/04/12 01:08:24;;;;;;;3.83;1.43;;;;;;;;;;5023773;28;20200;-63
2023/04/12 01:10:57;;;;;;;4.03;1.47;;;;;;;;;;5028717;28;20267;-63
2023/04/12 01:13:29;;;;;;;2.33;1.27;;;;;;;;;;5024230;28;20216;-63
2023/04/12 01:16:00;;;;;;;3.67;1.30;;;;;;;;;;5031714;28;20220;-63
2023/04/12 01:18:29;;;;;;;2.43;1.20;;;;;;;;;;5021303;28;20213;-63
2023/04/12 01:21:01;;;;;;;5.17;1.60;;;;;;;;;;5021716;28;20204;-63
2023/04/12 01:23:35;;;;;;;4.97;1.47;;;;;;;;;;5027198;28;20210;-63
2023/04/12 01:26:16;;;;;;;2.57;1.30;;;;;;;;;;5024275;28;20205;-63
2023/04/12 01:28:45;;;;;;;2.47;1.30;;;;;;;;;;5020322;28;20267;-63
2023/04/12 01:31:13;;;;;;;3.37;1.90;;;;;;;;;;5031949;28;20195;-63
2023/04/12 01:33:41;;;;;;;3.13;1.50;;;;;;;;;;5020720;28;20203;-63
2023/04/12 01:36:11;;;;;;;2.80;1.50;;;;;;;;;;5023299;28;20231;-62
2023/04/12 01:38:39;;;;;;;2.33;1.50;;;;;;;;;;5026082;28;20220;-62
2023/04/12 01:41:08;;;;;;;2.80;1.40;;;;;;;;;;5026452;28;20220;-63
2023/04/12 01:43:41;;;;;;;3.70;1.50;;;;;;;;;;5020422;28;20255;-62
2023/04/12 01:46:10;;;;;;;2.90;1.30;;;;;;;;;;5030286;28;20273;-63
2023/04/12 01:48:38;;;;;;;3.03;1.23;;;;;;;;;;5030947;28;20200;-62
2023/04/12 01:51:06;;;;;;;2.30;1.00;;;;;;;;;;5025910;28;20235;-63
2023/04/12 01:53:37;;;;;;;2.50;1.50;;;;;;;;;;5027770;28;20207;-62
2023/04/12 01:56:08;;;;;;;2.27;1.10;;;;;;;;;;5026008;28;20212;-63
2023/04/12 01:58:35;;;;;;;3.77;1.40;;;;;;;;;;5023481;28;20262;-63
2023/04/12 02:01:04;;;;;;;2.40;1.30;;;;;;;;;;5027465;28;20270;-62
2023/04/12 02:03:33;;;;;;;2.07;1.20;;;;;;;;;;5020174;28;20205;-63
2023/04/12 02:06:01;;;;;;;3.00;1.20;;;;;;;;;;5024503;28;20192;-63
2023/04/12 02:08:28;;;;;;;1.93;1.20;;;;;;;;;;5022881;28;20323;-63
2023/04/12 02:10:55;;;;;;;3.10;1.30;;;;;;;;;;5023597;28;20204;-63
2023/04/12 02:13:22;;;;;;;1.57;1.20;;;;;;;;;;5017935;28;20205;-63
2023/04/12 02:15:49;;;;;;;2.47;1.20;;;;;;;;;;5027261;28;20207;-63
2023/04/12 02:18:16;;;;;;;2.90;1.20;;;;;;;;;;5031049;28;20203;-63
2023/04/12 02:20:45;;;;;;;2.27;1.20;;;;;;;;;;5023500;28;20209;-63
2023/04/12 02:23:12;;;;;;;1.23;0.90;;;;;;;;;;5022461;28;20283;-63
2023/04/12 02:25:40;;;;;;;2.23;1.10;;;;;;;;;;5025924;28;20206;-63
2023/04/12 02:28:07;;;;;;;3.13;1.23;;;;;;;;;;5018031;28;20231;-62
2023/04/12 02:30:34;;;;;;;1.07;1.00;;;;;;;;;;5019940;28;20200;-62
2023/04/12 02:33:04;;;;;;;4.57;1.20;;;;;;;;;;5026403;28;20197;-63
2023/04/12 02:35:32;;;;;;;1.83;1.10;;;;;;;;;;5025425;28;20223;-63
2023/04/12 02:38:00;;;;;;;2.20;1.23;;;;;;;;;;5022881;28;20204;-63
2023/04/12 02:40:27;;;;;;;2.17;1.00;;;;;;;;;;5026480;28;20223;-63
2023/04/12 02:42:54;;;;;;;3.63;1.53;;;;;;;;;;5024927;28;20204;-63
2023/04/12 02:45:22;;;;;;;2.80;1.10;;;;;;;;;;5025593;28;20211;-63
2023/04/12 02:47:49;;;;;;;1.70;1.10;;;;;;;;;;5026733;28;20204;-63
2023/04/12 02:50:16;;;;;;;1.67;1.20;;;;;;;;;;5025595;28;20199;-63
2023/04/12 02:52:43;;;;;;;2.47;1.20;;;;;;;;;;5018561;28;20208;-63
2023/04/12 02:55:11;;;;;;;3.27;1.40;;;;;;;;;;5029950;28;20212;-63
2023/04/12 02:57:38;;;;;;;2.30;1.00;;;;;;;;;;5026555;28;20204;-63
2023/04/12 03:00:08;;;;;;;1.47;0.90;;;;;;;;;;5020400;28;20586;-63
2023/04/12 03:02:35;;;;;;;2.47;1.20;;;;;;;;;;5023346;28;20207;-63
2023/04/12 03:05:03;;;;;;;2.10;1.23;;;;;;;;;;5024550;28;20232;-63
2023/04/12 03:07:31;;;;;;;5.17;2.60;;;;;;;;;;5022375;28;20204;-62
2023/04/12 03:09:58;;;;;;;2.97;1.40;;;;;;;;;;5024906;28;20207;-62
2023/04/12 03:12:27;;;;;;;1.37;1.27;;;;;;;;;;5025508;28;20196;-62
2023/04/12 03:14:54;;;;;;;3.63;1.33;;;;;;;;;;5019528;28;20292;-62
2023/04/12 03:17:21;;;;;;;1.63;1.10;;;;;;;;;;5022861;28;20204;-62
2023/04/12 03:19:50;;;;;;;3.07;1.73;;;;;;;;;;5022799;28;20217;-63
2023/04/12 03:22:17;;;;;;;2.03;1.00;;;;;;;;;;5026516;28;20211;-62
2023/04/12 03:24:45;;;;;;;2.67;1.53;;;;;;;;;;5021850;28;20204;-63
2023/04/12 03:27:12;;;;;;;3.60;1.40;;;;;;;;;;5020796;28;20204;-62
2023/04/12 03:29:41;;;;;;;1.90;1.30;;;;;;;;;;5027032;28;20397;-62
2023/04/12 03:32:08;;;;;;;1.93;1.20;;;;;;;;;;5020461;28;20259;-62
2023/04/12 03:34:35;;;;;;;2.70;1.37;;;;;;;;;;5020269;28;20208;-62
2023/04/12 03:37:02;;;;;;;1.00;1.00;;;;;;;;;;5019620;28;20200;-62
2023/04/12 03:39:29;;;;;;;1.63;1.30;;;;;;;;;;5019226;28;20228;-63
2023/04/12 03:41:57;;;;;;;1.73;1.20;;;;;;;;;;5021884;28;20204;-63
2023/04/12 03:44:25;;;;;;;2.07;1.50;;;;;;;;;;5019728;28;20212;-63
2023/04/12 03:46:53;;;;;;;3.43;1.30;;;;;;;;;;5027450;28;20203;-63
2023/04/12 03:49:20;;;;;;;3.50;1.60;;;;;;;;;;5028927;28;20232;-63
2023/04/12 03:51:49;;;;;;;0.93;0.93;;;;;;;;;;5024949;28;20204;-63
2023/04/12 03:54:16;;;;;;;2.33;1.20;;;;;;;;;;5023929;28;20209;-63
2023/04/12 03:56:43;;;;;;;2.90;1.67;;;;;;;;;;5027009;28;20196;-63
2023/04/12 03:59:10;;;;;;;2.83;1.33;;;;;;;;;;5023846;28;20220;-63
2023/04/12 04:01:38;;;;;;;3.40;1.47;;;;;;;;;;5025132;28;20201;-63
2023/04/12 04:04:07;;;;;;;2.00;1.50;;;;;;;;;;5025082;28;20200;-62
2023/04/12 04:06:34;;;;;;;2.40;1.50;;;;;;;;;;5027821;28;20204;-62
2023/04/12 04:09:01;;;;;;;3.30;1.83;;;;;;;;;;5025888;28;20204;-62
2023/04/12 04:11:29;;;;;;;3.20;1.77;;;;;;;;;;5024910;28;20208;-63
2023/04/12 04:13:56;;;;;;;2.23;1.70;;;;;;;;;;5025971;28;20205;-62
2023/04/12 04:16:24;;;;;;;3.43;1.83;;;;;;;;;;5021988;28;20197;-62
2023/04/12 04:18:51;;;;;;;3.27;1.53;;;;;;;;;;5021787;28;20276;-63
2023/04/12 04:21:21;;;;;;;2.73;1.70;;;;;;;;;;5019421;28;20200;-63
2023/04/12 04:23:50;;;;;;;4.97;1.70;;;;;;;;;;5022368;28;20207;-63
2023/04/12 04:26:19;;;;;;;3.70;1.57;;;;;;;;;;5022834;28;20221;-63
2023/04/12 04:28:49;;;;;;;3.53;1.87;;;;;;;;;;5019953;28;20319;-62
2023/04/12 04:31:16;;;;;;;4.17;1.77;;;;;;;;;;5022415;28;20205;-62
2023/04/12 04:33:43;;;;;;;1.83;1.50;;;;;;;;;;5021427;28;20200;-63
2023/04/12 04:36:11;;;;;;;2.80;1.80;;;;;;;;;;5042770;28;20210;-63
2023/04/12 04:38:40;;;;;;;1.90;1.10;;;;;;;;;;5025874;28;20201;-63
2023/04/12 04:41:09;;;;;;;1.73;1.53;;;;;;;;;;5031712;28;20223;-63
2023/04/12 04:43:38;;;;;;;2.57;1.50;;;;;;;;;;5017349;28;20201;-63
2023/04/12 04:46:06;;;;;;;2.63;1.57;;;;;;;;;;5026028;28;20201;-62
2023/04/12 04:48:33;;;;;;;2.33;1.60;;;;;;;;;;5027907;28;20196;-63
2023/04/12 04:51:01;;;;;;;4.67;1.80;;;;;;;;;;5027413;28;20192;-63
2023/04/12 04:53:28;;;;;;;3.20;1.50;;;;;;;;;;5020612;28;20212;-63
2023/04/12 04:55:59;;;;;;;2.83;1.57;;;;;;;;;;5021457;28;20211;-63
2023/04/12 04:58:27;;;;;;;2.53;1.60;;;;;;;;;;5021953;28;20235;-63
2023/04/12 05:00:56;;;;;;;2.63;1.73;;;;;;;;;;5022881;28;20232;-64
2023/04/12 05:03:27;;;;;;;3.00;1.70;;;;;;;;;;5028845;28;20211;-63
2023/04/12 05:05:54;;;;;;;2.43;1.30;;;;;;;;;;5024228;28;20227;-63
2023/04/12 05:08:25;;;;;;;1.40;1.30;;;;;;;;;;5022828;28;20262;-63
2023/04/12 05:10:53;;;;;;;3.37;1.60;;;;;;;;;;5025712;28;20223;-63
2023/04/12 05:13:22;;;;;;;2.90;1.40;;;;;;;;;;5020582;28;20205;-63
2023/04/12 05:15:49;;;;;;;2.47;1.80;;;;;;;;;;5014478;28;20204;-63
2023/04/12 05:18:16;;;;;;;2.37;1.60;;;;;;;;;;5023881;28;20204;-63
2023/04/12 05:20:43;;;;;;;2.03;1.60;;;;;;;;;;5018087;28;20225;-63
2023/04/12 05:23:11;;;;;;;1.63;1.43;;;;;;;;;;5023772;28;20226;-63
2023/04/12 05:25:38;;;;;;;1.80;1.63;;;;;;;;;;5022367;28;20215;-63
2023/04/12 05:28:12;;;;;;;3.27;1.43;;;;;;;;;;5022870;28;20238;-63
2023/04/12 05:30:41;;;;;;;2.53;1.70;;;;;;;;;;5019217;28;20231;-63
2023/04/12 05:33:08;;;;;;;1.70;1.30;;;;;;;;;;5018078;28;20212;-63
2023/04/12 05:35:35;;;;;;;3.67;1.80;;;;;;;;;;5029421;28;20200;-63
2023/04/12 05:38:02;;;;;;;2.20;1.50;;;;;;;;;;5027866;28;20200;-63
2023/04/12 05:40:31;;;;;;;2.40;1.40;;;;;;;;;;5015940;28;20231;-63
2023/04/12 05:42:58;;;;;;;2.50;1.70;;;;;;;;;;5020869;28;20258;-63
2023/04/12 05:45:25;;;;;;;3.60;1.80;;;;;;;;;;5021134;28;20217;-62
2023/04/12 05:47:54;;;;;;;3.57;1.60;;;;;;;;;;5021302;28;20239;-63
2023/04/12 05:50:21;;;;;;;2.20;1.50;;;;;;;;;;5020329;28;20201;-63
2023/04/12 05:52:49;;;;;;;2.23;1.50;;;;;;;;;;5019795;28;20204;-63
2023/04/12 05:55:17;;;;;;;3.20;1.50;;;;;;;;;;5020659;28;20200;-63
2023/04/12 05:57:46;;;;;;;3.20;1.50;;;;;;;;;;5017505;28;20239;-63
2023/04/12 06:00:16;;;;;;;3.53;1.40;;;;;;;;;;5021061;28;20233;-63
2023/04/12 06:02:43;;;;;;;3.23;1.70;;;;;;;;;;5019158;28;20209;-63
2023/04/12 06:05:12;;;;;;;4.10;1.90;;;;;;;;;;5019452;28;20219;-63
2023/04/12 06:07:40;;;;;;;3.10;1.43;;;;;;;;;;5022192;28;20254;-63
2023/04/12 06:10:08;;;;;;;4.03;1.37;;;;;;;;;;5025382;28;20201;-63
2023/04/12 06:12:35;;;;;;;2.80;1.73;;;;;;;;;;5022887;28;20227;-62
2023/04/12 06:15:03;;;;;;;1.80;1.60;;;;;;;;;;5022848;28;20214;-62
2023/04/12 06:17:30;;;;;;;2.20;1.40;;;;;;;;;;5024249;28;20200;-62
2023/04/12 06:19:57;;;;;;;1.77;1.67;;;;;;;;;;5023584;28;20228;-62
2023/04/12 06:22:26;;;;;;;1.33;1.20;;;;;;;;;;5022974;28;20195;-63
2023/04/12 06:24:53;;;;;;;3.27;1.60;;;;;;;;;;5026906;28;20196;-62
2023/04/12 06:27:21;;;;;;;2.63;1.40;;;;;;;;;;5019308;28;20200;-63
2023/04/12 06:29:48;;;;;;;1.40;1.30;;;;;;;;;;5020874;28;20327;-63
2023/04/12 06:32:16;;;;;;;1.60;1.20;;;;;;;;;;5018812;28;20242;-62
2023/04/12 06:34:43;;;;;;;2.10;1.53;;;;;;;;;;5020053;28;20211;-62
2023/04/12 06:37:10;;;;;;;2.13;1.60;;;;;;;;;;5019086;28;20208;-62
2023/04/12 06:39:40;;;;;;;1.80;1.40;;;;;;;;;;5021184;28;20200;-62
2023/04/12 06:42:07;;;;;;;2.73;1.43;;;;;;;;;;5020885;28;20206;-62
2023/04/12 06:44:34;;;;;;;1.97;1.40;;;;;;;;;;5020403;28;20212;-62
2023/04/12 06:47:02;;;;;;;2.63;1.80;;;;;;;;;;5024834;28;20262;-62
2023/04/12 06:49:29;;;;;;;2.30;1.90;;;;;;;;;;5024137;28;20313;-62
2023/04/12 06:51:57;;;;;;;3.17;1.67;;;;;;;;;;5019587;28;20212;-62
2023/04/12 06:54:24;;;;;;;3.97;1.80;;;;;;;;;;5019996;28;20235;-62
2023/04/12 06:56:53;;;;;;;2.27;1.50;;;;;;;;;;5020248;28;20204;-62
2023/04/12 06:59:20;;;;;;;1.90;1.47;;;;;;;;;;5018804;28;20287;-62
2023/04/12 07:01:48;;;;;;;1.93;1.50;;;;;;;;;;5018561;28;20224;-62
2023/04/12 07:04:16;;;;;;;1.63;1.30;;;;;;;;;;5020905;28;20208;-62
2023/04/12 07:06:44;;;;;;;1.43;1.30;;;;;;;;;;5011679;28;20240;-62
2023/04/12 07:09:11;;;;;;;1.50;1.17;;;;;;;;;;5025544;28;20204;-62
2023/04/12 07:11:39;;;;;;;1.60;1.20;;;;;;;;;;5021206;28;20224;-61
2023/04/12 07:14:08;;;;;;;3.00;1.67;;;;;;;;;;5025303;28;20207;-62
2023/04/12 07:16:35;;;;;;;1.40;1.30;;;;;;;;;;5023945;28;20201;-62
2023/04/12 07:19:02;;;;;;;2.13;1.50;;;;;;;;;;5022425;28;20204;-62
2023/04/12 07:21:30;;;;;;;1.13;1.10;;;;;;;;;;5028808;28;20224;-62
2023/04/12 07:23:57;;;;;;;2.93;1.73;;;;;;;;;;5026184;28;20216;-62
2023/04/12 07:26:25;;;;;;;2.60;1.53;;;;;;;;;;5029418;28;20272;-62
2023/04/12 07:28:53;;;;;;;3.20;1.40;;;;;;;;;;5026186;28;20232;-61
2023/04/12 07:31:22;;;;;;;1.73;1.23;;;;;;;;;;5024692;28;20216;-62
2023/04/12 07:33:50;;;;;;;2.00;1.40;;;;;;;;;;5020161;28;20208;-62
2023/04/12 07:36:19;;;;;;;1.37;1.27;;;;;;;;;;5026119;28;20207;-61
2023/04/12 07:38:47;;;;;;;2.00;1.60;;;;;;;;;;5030974;28;20204;-62
2023/04/12 07:41:14;;;;;;;2.10;1.50;;;;;;;;;;5025723;28;20300;-62
2023/04/12 07:43:42;;;;;;;1.17;1.07;;;;;;;;;;5026610;28;20211;-62
2023/04/12 07:46:09;;;;;;;1.27;1.17;;;;;;;;;;5023795;28;20211;-61
2023/04/12 07:48:39;;;;;;;2.73;1.30;;;;;;;;;;5025392;28;20232;-62
2023/04/12 07:51:06;;;;;;;1.30;1.20;;;;;;;;;;5018631;28;20216;-62
2023/04/12 07:53:34;;;;;;;1.47;1.27;;;;;;;;;;5026262;28;20215;-62
2023/04/12 07:56:03;;;;;;;1.40;1.30;;;;;;;;;;5029572;28;20208;-62
2023/04/12 07:58:31;;;;;;;1.10;1.00;;;;;;;;;;5025475;28;20255;-61
2023/04/12 08:00:58;;;;;;;1.80;1.40;;;;;;;;;;5021262;28;20225;-61
2023/04/12 08:03:26;;;;;;;1.97;1.13;;;;;;;;;;5029360;28;20213;-62
2023/04/12 08:05:54;;;;;;;1.93;1.40;;;;;;;;;;5022708;28;20204;-62
2023/04/12 08:08:22;;;;;;;2.00;1.37;;;;;;;;;;5026776;28;20204;-61
2023/04/12 08:10:49;;;;;;;2.47;1.40;;;;;;;;;;5020694;28;20200;-61
2023/04/12 08:13:17;;;;;;;2.17;1.30;;;;;;;;;;5027248;28;20204;-62
2023/04/12 08:15:46;;;;;;;2.30;1.47;;;;;;;;;;5029239;28;20212;-62
2023/04/12 08:18:13;;;;;;;1.13;1.00;;;;;;;;;;5021734;28;20223;-62
2023/04/12 08:20:42;;;;;;;2.30;1.50;;;;;;;;;;5026715;28;20208;-63
2023/04/12 08:23:11;;;;;;;1.20;1.10;;;;;;;;;;5022714;28;20204;-62
2023/04/12 08:25:38;;;;;;;2.87;1.60;;;;;;;;;;5019182;28;20299;-61
2023/04/12 08:28:07;;;;;;;1.67;1.47;;;;;;;;;;5026203;28;20277;-61
2023/04/12 08:30:35;;;;;;;1.20;1.10;;;;;;;;;;5023662;28;20204;-61
2023/04/12 08:33:02;;;;;;;1.53;1.13;;;;;;;;;;5024177;28;20205;-61
2023/04/12 08:35:30;;;;;;;1.30;1.20;;;;;;;;;;5022800;28;20275;-61
2023/04/12 08:37:59;;;;;;;1.67;1.10;;;;;;;;;;5021961;28;20232;-61
2023/04/12 08:40:29;;;;;;;1.10;1.00;;;;;;;;;;5025050;28;20204;-62
2023/04/12 08:42:57;;;;;;;1.70;1.10;;;;;;;;;;5017752;28;20212;-61
2023/04/12 08:45:27;;;;;;;1.50;1.20;;;;;;;;;;5018019;28;20208;-62
2023/04/12 08:47:55;;;;;;;1.53;1.03;;;;;;;;;;5019750;28;20216;-61
2023/04/12 08:50:22;;;;;;;1.57;1.00;;;;;;;;;;5018793;28;20207;-62
2023/04/12 08:52:49;;;;;;;0.90;0.90;;;;;;;;;;5024993;28;20204;-61
2023/04/12 08:55:17;;;;;;;1.00;1.00;;;;;;;;;;5027191;28;20197;-61
2023/04/12 08:57:46;;;;;;;1.33;1.10;;;;;;;;;;5023713;28;20208;-62
2023/04/12 09:00:14;;;;;;;1.13;1.10;;;;;;;;;;5024528;28;20208;-62
2023/04/12 09:02:45;;;;;;;1.00;1.00;;;;;;;;;;5025803;28;20227;-61
2023/04/12 09:05:13;;;;;;;1.57;1.10;;;;;;;;;;5019137;28;20273;-62
2023/04/12 09:07:41;;;;;;;3.57;1.23;;;;;;;;;;5022757;28;20292;-62
2023/04/12 09:10:08;;;;;;;1.33;1.23;;;;;;;;;;5023815;28;20209;-61
2023/04/12 09:12:35;;;;;;;1.33;1.20;;;;;;;;;;5023101;28;20201;-62
2023/04/12 09:15:08;;;;;;;1.37;1.20;;;;;;;;;;5023733;28;20213;-62
2023/04/12 09:17:37;;;;;;;1.40;1.30;;;;;;;;;;5022953;28;20211;-61
2023/04/12 09:20:23;;;;;;;1.43;1.30;;;;;;;;;;5024761;28;20351;-62
2023/04/12 09:22:51;;;;;;;1.43;1.20;;;;;;;;;;5021066;28;20230;-62
2023/04/12 09:25:18;;;;;;;2.03;1.20;;;;;;;;;;5024757;28;20204;-62
2023/04/12 09:27:47;;;;;;;2.30;1.20;;;;;;;;;;5027279;28;20234;-62
2023/04/12 09:30:16;;;;;;;2.10;1.23;;;;;;;;;;5016833;28;20219;-62
2023/04/12 09:32:44;;;;;;;1.27;1.17;;;;;;;;;;5017823;28;20201;-61
2023/04/12 09:35:11;;;;;;;2.13;1.30;;;;;;;;;;5017136;28;20213;-62
2023/04/12 09:37:39;;;;;;;1.87;1.40;;;;;;;;;;5024634;28;20300;-61
2023/04/12 09:40:07;;;;;;;1.20;1.17;;;;;;;;;;5021117;28;20200;-62
2023/04/12 09:42:34;;;;;;;1.27;1.07;;;;;;;;;;5021924;28;20273;-62
2023/04/12 09:45:02;;;;;;;2.23;1.27;;;;;;;;;;5023397;28;20193;-61
2023/04/12 09:47:38;;;;;;;1.93;1.50;;;;;;;;;;5021854;28;20205;-61
2023/04/12 09:50:06;;;;;;;3.70;1.40;;;;;;;;;;5020635;28;20287;-61
2023/04/12 09:52:37;;;;;;;1.50;0.90;;;;;;;;;;5022245;28;20297;-61
2023/04/12 09:55:08;;;;;;;0.70;0.70;;;;;;;;;;5022242;28;20229;-61
2023/04/12 09:57:36;;;;;;;0.60;0.60;;;;;;;;;;5025634;28;20204;-62
2023/04/12 10:00:05;;;;;;;0.53;0.53;;;;;;;;;;5018976;28;20196;-61
2023/04/12 10:02:32;;;;;;;0.30;0.30;;;;;;;;;;5019860;28;20319;-61
2023/04/12 10:05:01;;;;;;;1.70;0.80;;;;;;;;;;5025493;28;20283;-61
2023/04/12 10:07:28;;;;;;;0.80;0.80;;;;;;;;;;5018614;28;20210;-61
2023/04/12 10:09:58;;;;;;;0.70;0.70;;;;;;;;;;5021760;28;20211;-61
2023/04/12 10:12:26;;;;;;;1.20;1.10;;;;;;;;;;5017318;28;20224;-61
2023/04/12 10:14:54;;;;;;;1.10;1.00;;;;;;;;;;5020368;28;20212;-61
2023/04/12 10:17:23;;;;;;;1.10;0.80;;;;;;;;;;5023112;28;20200;-61
2023/04/12 10:19:51;;;;;;;0.70;0.70;;;;;;;;;;5021885;28;20204;-61
2023/04/12 10:22:22;;;;;;;1.63;0.73;;;;;;;;;;5024776;28;20262;-61
2023/04/12 10:24:50;;;;;;;1.00;0.60;;;;;;;;;;5020573;28;20205;-61
2023/04/12 10:27:26;;;;;;;0.50;0.50;;;;;;;;;;5020201;28;20236;-61
2023/04/12 10:29:53;;;;;;;0.73;0.67;;;;;;;;;;5024606;28;20223;-61
2023/04/12 10:32:21;;;;;;;0.60;0.60;;;;;;;;;;5016437;28;20204;-61
2023/04/12 10:34:51;;;;;;;0.70;0.50;;;;;;;;;;5026260;28;20200;-61
2023/04/12 10:37:18;;;;;;;0.60;0.50;;;;;;;;;;5023423;28;20204;-61
2023/04/12 10:39:52;;;;;;;1.93;0.63;;;;;;;;;;5027159;28;20211;-61
2023/04/12 10:42:28;;;;;;;0.83;0.80;;;;;;;;;;5024402;28;20220;-61
2023/04/12 10:44:56;;;;;;;1.00;0.70;;;;;;;;;;5020826;28;20204;-69
2023/04/12 10:47:42;;;;;;;0.60;0.60;;;;;;;;;;5021945;28;20209;-69
2023/04/12 10:50:23;;;;;;;0.80;0.70;;;;;;;;;;5021442;28;20216;-69
2023/04/12 10:53:05;;;;;;;0.90;0.90;;;;;;;;;;5019994;28;20287;-69
2023/04/12 10:55:34;;;;;;;1.23;0.70;;;;;;;;;;5014590;28;20308;-68
2023/04/12 10:58:01;;;;;;;0.85;0.50;;;;;;;;;;5018463;28;20212;-68
2023/04/12 11:00:54;;;;;;;0.50;0.50;;;;;;;;;;5018743;28;20239;-68
2023/04/12 11:03:21;;;;;;;0.40;0.40;;;;;;;;;;5021631;28;20238;-70
2023/04/12 11:06:01;;;;;;;0.43;0.40;;;;;;;;;;5021209;28;20291;-70
2023/04/12 11:08:29;;;;;;;2.60;0.40;;;;;;;;;;5019273;28;20204;-69
2023/04/12 11:11:04;;;;;;;0.80;0.40;;;;;;;;;;5017270;28;20216;-69
2023/04/12 11:13:36;;;;;;;0.30;0.30;;;;;;;;;;5018246;28;20267;-68
2023/04/12 11:16:03;;;;;;;1.48;0.40;;;;;;;;;;5026241;28;20242;-68
2023/04/12 11:18:30;;;;;;;0.60;0.60;;;;;;;;;;5019640;28;20203;-68
2023/04/12 11:20:58;;;;;;;0.30;0.30;;;;;;;;;;5027044;28;20208;-68
2023/04/12 11:23:26;;;;;;;2.20;0.50;;;;;;;;;;5010112;28;20235;-69
2023/04/12 11:25:53;;;;;;;0.70;0.70;;;;;;;;;;5016477;28;20208;-68
2023/04/12 11:28:22;;;;;;;1.13;0.60;;;;;;;;;;5024130;28;20252;-68
2023/04/12 11:30:49;;;;;;;1.27;1.20;;;;;;;;;;5026117;28;20197;-69
2023/04/12 11:33:31;;;;;;;1.08;0.90;;;;;;;;;;5023547;28;20193;-69
2023/04/12 11:35:58;;;;;;;0.30;0.30;;;;;;;;;;5025008;28;20207;-68
2023/04/12 11:38:25;;;;;;;0.40;0.40;;;;;;;;;;5021973;28;20215;-69
2023/04/12 11:40:52;;;;;;;0.50;0.50;;;;;;;;;;5023746;28;20212;-69
2023/04/12 11:43:21;;;;;;;0.60;0.60;;;;;;;;;;5023238;28;20238;-68
2023/04/12 11:45:48;;;;;;;0.95;0.60;;;;;;;;;;5023383;28;20207;-69
2023/04/12 11:48:16;;;;;;;0.50;0.50;;;;;;;;;;5017449;28;20231;-69
2023/04/12 11:50:43;;;;;;;0.68;0.68;;;;;;;;;;5019854;28;20213;-69
2023/04/12 11:53:11;;;;;;;0.60;0.60;;;;;;;;;;5019694;28;20205;-69
2023/04/12 11:55:39;;;;;;;0.40;0.40;;;;;;;;;;5016820;28;20213;-68
2023/04/12 11:58:06;;;;;;;1.42;1.20;;;;;;;;;;5015697;28;20212;-69
2023/04/12 12:00:35;;;;;;;0.28;0.28;;;;;;;;;;5013927;28;20216;-69
2023/04/12 12:03:02;;;;;;;0.40;0.35;;;;;;;;;;5016185;28;20212;-68
2023/04/12 12:05:29;;;;;;;0.20;0.20;;;;;;;;;;5021837;28;20237;-69
2023/04/12 12:07:56;;;;;;;0.50;0.50;;;;;;;;;;5023939;28;20196;-69
2023/04/12 12:10:23;;;;;;;0.10;0.10;;;;;;;;;;5022838;28;20197;-69
2023/04/12 12:12:50;;;;;;;0.50;0.50;;;;;;;;;;5020047;28;20204;-68
2023/04/12 12:15:18;;;;;;;0.90;0.90;;;;;;;;;;5026105;28;20204;-69
2023/04/12 12:17:46;;;;;;;1.48;0.60;;;;;;;;;;5022033;28;20208;-69
2023/04/12 12:20:20;;;;;;;1.08;0.50;;;;;;;;;;5016165;28;20204;-68
2023/04/12 12:22:47;;;;;;;0.47;0.30;;;;;;;;;;5026186;28;20216;-69
2023/04/12 12:25:14;;;;;;;0.32;0.30;;;;;;;;;;5026116;28;20210;-69
2023/04/12 12:27:43;;;;;;;0.52;0.30;;;;;;;;;;5015809;28;20211;-67
2023/04/12 12:30:11;;;;;;;0.40;0.40;;;;;;;;;;5028811;28;20208;-68
2023/04/12 12:32:39;;;;;;;1.77;0.50;;;;;;;;;;5022335;28;20210;-69
2023/04/12 12:35:10;;;;;;;0.57;0.50;;;;;;;;;;5026447;28;20219;-69
2023/04/12 12:37:38;;;;;;;0.57;0.40;;;;;;;;;;5023553;28;20215;-69
2023/04/12 12:40:10;;;;;;;1.13;0.60;;;;;;;;;;5026728;28;20208;-69
2023/04/12 12:42:38;;;;;;;0.30;0.30;;;;;;;;;;5025687;28;20255;-69
2023/04/12 12:45:06;;;;;;;0.40;0.40;;;;;;;;;;5022756;28;20231;-69
2023/04/12 12:47:33;;;;;;;0.32;0.30;;;;;;;;;;5023368;28;20271;-70
2023/04/12 12:50:00;;;;;;;0.63;0.40;;;;;;;;;;5022214;28;20213;-69
2023/04/12 12:52:29;;;;;;;0.40;0.40;;;;;;;;;;5019468;28;20207;-69
2023/04/12 12:54:56;;;;;;;0.40;0.40;;;;;;;;;;5025404;28;20211;-69
2023/04/12 12:57:23;;;;;;;0.88;0.60;;;;;;;;;;5023447;28;20224;-68
2023/04/12 12:59:50;;;;;;;0.25;0.25;;;;;;;;;;5024355;28;20208;-68
2023/04/12 13:02:18;;;;;;;0.25;0.25;;;;;;;;;;5023887;28;20290;-69
2023/04/12 13:04:45;;;;;;;1.55;1.27;;;;;;;;;;5026537;28;20312;-69
2023/04/12 13:07:12;;;;;;;3.22;2.45;;;;;;;;;;5024190;28;20207;-68
2023/04/12 13:09:41;;;;;;;1.77;1.67;;;;;;;;;;5021209;28;20216;-69
2023/04/12 13:12:08;;;;;;;0.60;0.60;;;;;;;;;;5021430;28;20197;-68
2023/04/12 13:14:35;;;;;;;0.25;0.25;;;;;;;;;;5023019;28;20215;-69
2023/04/12 13:17:02;;;;;;;2.15;0.70;;;;;;;;;;5024503;28;20205;-69
2023/04/12 13:19:29;;;;;;;0.60;0.60;;;;;;;;;;5019595;28;20199;-68
2023/04/12 13:21:56;;;;;;;1.45;0.57;;;;;;;;;;5023371;28;20262;-68
2023/04/12 13:24:24;;;;;;;0.45;0.45;;;;;;;;;;5018769;28;20209;-68
2023/04/12 13:26:52;;;;;;;0.52;0.52;;;;;;;;;;5022022;28;20200;-69
2023/04/12 13:29:19;;;;;;;0.70;0.70;;;;;;;;;;5022611;28;20231;-68
2023/04/12 13:31:46;;;;;;;1.00;1.00;;;;;;;;;;5023816;28;20204;-69
2023/04/12 13:34:14;;;;;;;0.77;0.68;;;;;;;;;;5022491;28;20200;-69
2023/04/12 13:36:41;;;;;;;0.73;0.73;;;;;;;;;;5025605;28;20212;-69
2023/04/12 13:39:08;;;;;;;0.73;0.60;;;;;;;;;;5020455;28;20220;-69
2023/04/12 13:41:35;;;;;;;0.60;0.60;;;;;;;;;;5026216;28;20208;-69
2023/04/12 13:44:04;;;;;;;0.50;0.50;;;;;;;;;;5022957;28;20262;-69
2023/04/12 13:46:31;;;;;;;0.68;0.68;;;;;;;;;;5019134;28;20204;-69
2023/04/12 13:48:58;;;;;;;0.50;0.50;;;;;;;;;;5022209;28;20200;-68
2023/04/12 13:51:27;;;;;;;0.90;0.90;;;;;;;;;;5020747;28;20205;-68
2023/04/12 13:53:54;;;;;;;0.50;0.30;;;;;;;;;;5012913;28;20211;-69
2023/04/12 13:56:21;;;;;;;1.00;0.90;;;;;;;;;;5017283;28;20203;-69
2023/04/12 13:58:48;;;;;;;0.40;0.40;;;;;;;;;;5020867;28;20208;-69
2023/04/12 14:01:17;;;;;;;0.38;0.38;;;;;;;;;;5021976;28;20210;-69
2023/04/12 14:03:44;;;;;;;0.85;0.85;;;;;;;;;;5022315;28;20227;-69
2023/04/12 14:06:11;;;;;;;2.97;0.80;;;;;;;;;;5026690;28;20203;-69
2023/04/12 14:08:39;;;;;;;1.15;0.90;;;;;;;;;;5022780;28;20208;-69
2023/04/12 14:11:06;;;;;;;0.90;0.77;;;;;;;;;;5019965;28;20204;-69
2023/04/12 14:13:33;;;;;;;0.93;0.93;;;;;;;;;;5020979;28;20234;-69
2023/04/12 14:16:00;;;;;;;2.05;0.70;;;;;;;;;;5025224;28;20208;-69
2023/04/12 14:18:29;;;;;;;1.45;0.75;;;;;;;;;;5016399;28;20208;-69
2023/04/12 14:20:58;;;;;;;1.73;0.77;;;;;;;;;;5020771;28;20207;-62
2023/04/12 14:23:25;;;;;;;0.93;0.60;;;;;;;;;;5023562;28;20264;-61
2023/04/12 14:25:52;;;;;;;1.27;0.90;;;;;;;;;;5022436;28;20201;-62
2023/04/12 14:28:20;;;;;;;2.38;0.80;;;;;;;;;;5023200;28;20247;-61
2023/04/12 14:30:49;;;;;;;1.73;0.60;;;;;;;;;;5023274;28;20354;-61
2023/04/12 14:33:16;;;;;;;2.15;0.77;;;;;;;;;;5021856;28;20196;-62
2023/04/12 14:35:44;;;;;;;1.30;0.70;;;;;;;;;;5028920;28;20204;-61
2023/04/12 14:38:12;;;;;;;0.82;0.50;;;;;;;;;;5021382;28;20220;-61
2023/04/12 14:40:39;;;;;;;1.35;0.75;;;;;;;;;;5022269;28;20204;-62
2023/04/12 14:43:06;;;;;;;1.13;0.57;;;;;;;;;;5023723;28;20222;-62
2023/04/12 14:45:33;;;;;;;1.60;0.90;;;;;;;;;;5028179;28;20283;-61
2023/04/12 14:48:00;;;;;;;2.22;0.90;;;;;;;;;;5016723;28;20200;-62
2023/04/12 14:50:28;;;;;;;1.42;0.70;;;;;;;;;;5016550;28;20207;-62